»·PEaware :: SWA1774 KSJC-KONT

SWA1774 :: KSJC-KONT

FLIGHT INFORMATION

Flight Status: Arrived
Operator:
Southwest Airlines
More flights by this operator :: More flights under this callsign
Pilot: Patricio R. (14780)
Aircraft: BOEING 737-300
(B733)
More flights by this aircraft type
Origin: KSJC Mineta San Jose Intl
United States
Destination: KONT Ontario Intl
United States
More flights between these airports :: More routes between these airports
Route: +TECKY3 LOSHN CLASN GLRNO2
File this flight plan on PilotEdge
Remarks:
Altitude:
(Current/Filed)
37,000ft
Speed:
(Current/Filed)
405kts
Departed: 10-Jan-18 11:03 AM
Arrived: 10-Jan-18 11:59 AM
Distance/Time
Traveled:
290nm/0:55
Distance/Time
To Go:
Arrived

Flight Plot

Page will automatically refresh every two minutes.

Flight plan parsing failed; only flown route is shown


Map Options




Map Legend


Flown Route
Filed Route
Departure Airport
Arrival Airport
Navaid (VOR, NDB)
Fix

Horizontal Profiles

Position Reports

Time Latitude Longitude Heading Altitude Ground
Speed
10-Jan-18 09:54 37.366588 -121.927051 49 49ft 0kts
10-Jan-18 09:55 37.366588 -121.927051 49 49ft 0kts
10-Jan-18 09:56 37.366588 -121.927051 49 49ft 0kts
10-Jan-18 09:57 37.366588 -121.927051 49 49ft 0kts
10-Jan-18 09:58 37.366588 -121.927051 49 49ft 0kts
10-Jan-18 09:59 37.366588 -121.927051 49 49ft 0kts
10-Jan-18 10:00 37.366588 -121.927051 49 49ft 0kts
10-Jan-18 10:01 37.366588 -121.927051 49 49ft 0kts
10-Jan-18 10:02 37.366588 -121.927051 49 49ft 0kts
10-Jan-18 10:03 37.366588 -121.927051 49 49ft 0kts
10-Jan-18 10:04 37.366588 -121.927051 49 49ft 0kts
10-Jan-18 10:05 37.366588 -121.927051 49 49ft 0kts
10-Jan-18 10:06 37.366588 -121.927051 49 49ft 0kts
10-Jan-18 10:07 37.366588 -121.927051 49 49ft 0kts
10-Jan-18 10:08 37.366588 -121.927051 49 49ft 0kts
10-Jan-18 10:09 37.366588 -121.927051 49 49ft 0kts
10-Jan-18 10:10 37.366588 -121.927051 49 49ft 0kts
10-Jan-18 10:11 37.366588 -121.927051 49 49ft 0kts
10-Jan-18 10:12 37.366588 -121.927051 49 49ft 0kts
10-Jan-18 10:13 37.366588 -121.927051 49 49ft 0kts
10-Jan-18 10:14 37.366588 -121.927051 49 49ft 0kts
10-Jan-18 10:15 37.366588 -121.927051 49 49ft 0kts
10-Jan-18 10:16 37.366588 -121.927051 49 49ft 0kts
10-Jan-18 10:17 37.366588 -121.927051 49 49ft 0kts
10-Jan-18 10:18 37.366588 -121.927051 49 49ft 0kts
10-Jan-18 10:19 37.366588 -121.927051 49 49ft 0kts
10-Jan-18 10:20 37.366588 -121.927052 49 50ft 0kts
10-Jan-18 10:21 37.366588 -121.927052 49 50ft 0kts
10-Jan-18 10:22 37.366588 -121.927052 49 50ft 0kts
10-Jan-18 10:23 37.366588 -121.927052 49 50ft 0kts
10-Jan-18 10:24 37.366588 -121.927052 49 50ft 0kts
10-Jan-18 10:25 37.366588 -121.927052 49 50ft 0kts
10-Jan-18 10:26 37.366588 -121.927052 49 50ft 0kts
10-Jan-18 10:27 37.366588 -121.927052 49 50ft 0kts
10-Jan-18 10:28 37.366588 -121.927052 49 50ft 0kts
10-Jan-18 10:29 37.366588 -121.927052 49 50ft 0kts
10-Jan-18 10:30 37.366588 -121.927052 49 50ft 0kts
10-Jan-18 10:31 37.366588 -121.927052 49 50ft 0kts
10-Jan-18 10:32 37.366588 -121.927052 49 50ft 0kts
10-Jan-18 10:33 37.366588 -121.927052 49 50ft 0kts
10-Jan-18 10:34 37.366588 -121.927052 49 50ft 0kts
10-Jan-18 10:35 37.366588 -121.927052 49 50ft 0kts
10-Jan-18 10:36 37.366588 -121.927052 49 50ft 0kts
10-Jan-18 10:37 37.366588 -121.927052 49 50ft 0kts
10-Jan-18 10:38 37.366588 -121.927052 49 50ft 0kts
10-Jan-18 10:39 37.366588 -121.927052 49 50ft 0kts
10-Jan-18 10:40 37.366588 -121.927052 49 50ft 0kts
10-Jan-18 10:41 37.366588 -121.927052 49 50ft 0kts
10-Jan-18 10:42 37.366588 -121.927052 49 50ft 0kts
10-Jan-18 10:43 37.366588 -121.927052 49 50ft 0kts
10-Jan-18 10:44 37.366588 -121.927052 49 50ft 0kts
10-Jan-18 10:45 37.366588 -121.927052 49 50ft 0kts
10-Jan-18 10:46 37.366588 -121.927052 49 50ft 0kts
10-Jan-18 10:47 37.366588 -121.927052 49 50ft 0kts
10-Jan-18 10:48 37.366588 -121.927052 49 50ft 0kts
10-Jan-18 10:49 37.366588 -121.927052 49 50ft 0kts
10-Jan-18 10:50 37.366588 -121.927052 49 50ft 0kts
10-Jan-18 10:51 37.366588 -121.927052 49 50ft 0kts
10-Jan-18 10:52 37.366588 -121.927052 49 50ft 0kts
10-Jan-18 10:53 37.366588 -121.927052 49 50ft 0kts
10-Jan-18 10:54 37.366588 -121.927052 49 50ft 0kts
10-Jan-18 10:55 37.366355 -121.927399 72 50ft 2kts
10-Jan-18 10:56 37.366457 -121.927720 138 49ft 0kts
10-Jan-18 10:57 37.366457 -121.927720 138 49ft 0kts
10-Jan-18 10:58 37.366306 -121.927431 139 49ft 0kts
10-Jan-18 10:59 37.366304 -121.927428 139 49ft 0kts
10-Jan-18 11:00 37.366304 -121.927428 139 49ft 0kts
10-Jan-18 11:01 37.366304 -121.927428 139 49ft 0kts
10-Jan-18 11:02 37.366304 -121.927428 139 49ft 0kts
10-Jan-18 11:03 37.366304 -121.927428 139 49ft 0kts
10-Jan-18 11:04 37.365977 -121.927083 140 50ft 0kts
10-Jan-18 11:05 37.367440 -121.929249 319 49ft 16kts
10-Jan-18 11:06 37.371854 -121.934109 318 49ft 23kts
10-Jan-18 11:07 37.374291 -121.937746 319 49ft 16kts
10-Jan-18 11:08 37.375008 -121.939880 213 50ft 10kts
10-Jan-18 11:09 37.358546 -121.921866 136 279ft 161kts
10-Jan-18 11:10 37.324751 -121.883432 138 2811ft 180kts
10-Jan-18 11:11 37.283836 -121.834921 125 5388ft 222kts
10-Jan-18 11:12 37.243283 -121.770823 125 8240ft 255kts
10-Jan-18 11:13 37.194604 -121.693822 126 10363ft 309kts
10-Jan-18 11:14 37.139191 -121.606353 127 13152ft 333kts
10-Jan-18 11:15 37.079925 -121.512992 126 15836ft 355kts
10-Jan-18 11:16 37.006254 -121.426549 139 18322ft 376kts
10-Jan-18 11:17 36.924781 -121.339959 139 20644ft 394kts
10-Jan-18 11:18 36.840244 -121.250038 139 22693ft 409kts
10-Jan-18 11:19 36.752258 -121.156871 139 24519ft 425kts
10-Jan-18 11:20 36.660809 -121.060288 139 26149ft 440kts
10-Jan-18 11:21 36.565910 -120.961952 140 27954ft 446kts
10-Jan-18 11:22 36.467919 -120.862369 139 29250ft 466kts
10-Jan-18 11:23 36.365485 -120.758463 139 30487ft 486kts
10-Jan-18 11:24 36.259390 -120.651232 139 31831ft 500kts
10-Jan-18 11:25 36.151877 -120.542965 139 33567ft 499kts
10-Jan-18 11:26 36.044603 -120.435329 139 35055ft 498kts
10-Jan-18 11:27 35.937497 -120.328166 140 36361ft 497kts
10-Jan-18 11:28 35.849969 -120.218388 101 37151ft 478kts
10-Jan-18 11:29 35.814710 -120.061784 100 37210ft 485kts
10-Jan-18 11:30 35.771504 -119.904731 100 37213ft 485kts
10-Jan-18 11:31 35.728335 -119.747883 100 37217ft 485kts
10-Jan-18 11:32 35.684960 -119.591207 100 37221ft 485kts
10-Jan-18 11:33 35.621456 -119.445503 132 37223ft 505kts
10-Jan-18 11:34 35.527753 -119.324146 129 37187ft 504kts
10-Jan-18 11:35 35.436488 -119.200703 129 37218ft 504kts
10-Jan-18 11:36 35.342499 -119.074582 129 37212ft 504kts
10-Jan-18 11:37 35.247158 -118.948315 129 35906ft 506kts
10-Jan-18 11:38 35.152192 -118.822579 129 33912ft 509kts
10-Jan-18 11:39 35.065030 -118.707609 129 32126ft 507kts
10-Jan-18 11:40 34.969960 -118.582639 129 30154ft 500kts
10-Jan-18 11:41 34.882513 -118.468172 130 28268ft 490kts
10-Jan-18 11:42 34.792015 -118.350339 130 26277ft 470kts
10-Jan-18 11:43 34.708144 -118.241973 131 24335ft 451kts
10-Jan-18 11:44 34.625214 -118.134475 131 22357ft 432kts
10-Jan-18 11:45 34.565556 -118.019880 94 20376ft 391kts
10-Jan-18 11:46 34.544157 -117.894338 95 18383ft 372kts
10-Jan-18 11:47 34.525105 -117.788640 96 16623ft 358kts
10-Jan-18 11:48 34.504244 -117.673108 96 14630ft 345kts
10-Jan-18 11:49 34.477601 -117.566689 107 13213ft 338kts
10-Jan-18 11:50 34.434464 -117.470053 147 11700ft 326kts
10-Jan-18 11:51 34.358993 -117.416513 148 10203ft 309kts
10-Jan-18 11:52 34.287208 -117.365084 148 8712ft 293kts
10-Jan-18 11:53 34.219820 -117.316510 148 7959ft 280kts
10-Jan-18 11:54 34.152561 -117.269251 149 7972ft 280kts
10-Jan-18 11:55 34.089569 -117.225320 145 8049ft 227kts
10-Jan-18 11:56 34.047548 -117.250808 271 7261ft 207kts
10-Jan-18 11:57 34.011327 -117.278375 121 5754ft 204kts
10-Jan-18 11:58 34.036202 -117.260166 294 4233ft 192kts
10-Jan-18 11:59 34.053306 -117.321463 290 3996ft 195kts
10-Jan-18 12:00 34.055790 -117.384326 270 4010ft 199kts
10-Jan-18 12:01 34.055026 -117.451495 271 3114ft 197kts
10-Jan-18 12:02 34.055019 -117.512418 270 2113ft 157kts
10-Jan-18 12:03 34.054949 -117.561376 269 1314ft 137kts
10-Jan-18 12:04 34.054982 -117.601320 270 943ft 60kts
10-Jan-18 12:05 34.056907 -117.607079 316 943ft 14kts
10-Jan-18 12:06 34.057850 -117.607579 38 943ft 0kts
10-Jan-18 12:07 34.057997 -117.606055 90 943ft 11kts
10-Jan-18 12:08 34.057985 -117.601736 90 943ft 18kts
10-Jan-18 12:09 34.058984 -117.596911 89 943ft 19kts
10-Jan-18 12:10 34.058972 -117.590414 89 943ft 14kts
10-Jan-18 12:11 34.059833 -117.588759 0 943ft 0kts
10-Jan-18 12:12 34.059833 -117.588759 0 943ft 0kts
10-Jan-18 12:14 34.059833 -117.588759 0 943ft 0kts
10-Jan-18 12:15 34.059833 -117.588759 0 943ft 0kts
10-Jan-18 12:16 34.059833 -117.588759 0 943ft 0kts
10-Jan-18 12:17 34.059833 -117.588759 0 943ft 0kts
10-Jan-18 12:18 34.059833 -117.588759 0 943ft 0kts
10-Jan-18 12:19 34.059833 -117.588759 0 943ft 0kts

Navigation Log

Ident Type
Flight plan parsing failed, navigation log unavailable